Time;durP1;ratioP1;P1;durP2;ratioP2;P2;SDS_P1;SDS_P2;PMS_P1;PMS_P2;Temp;Humidity;BMP_temperature;BMP_pressure;BME280_temperature;BME280_humidity;BME280_pressure;Samples;Min_cycle;Max_cycle;Signal;HPM_P1;HPM_P2
2023/06/24 00:01:27;;;;;;;13.27;9.98;;;15.40;99.90;;;;;;5074916;28;20024;-75
2023/06/24 00:03:53;;;;;;;16.10;10.65;;;15.30;99.90;;;;;;5078560;28;20051;-74
2023/06/24 00:06:19;;;;;;;15.73;10.98;;;15.30;99.90;;;;;;5062550;28;20052;-74
2023/06/24 00:08:46;;;;;;;10.82;9.38;;;15.30;99.90;;;;;;5073790;28;20042;-74
2023/06/24 00:11:13;;;;;;;14.75;10.10;;;15.20;99.90;;;;;;5078342;28;20036;-74
2023/06/24 00:13:39;;;;;;;15.60;11.82;;;15.10;99.90;;;;;;5075134;28;20538;-75
2023/06/24 00:16:06;;;;;;;15.18;10.80;;;15.10;99.90;;;;;;5071645;28;20438;-75
2023/06/24 00:18:35;;;;;;;17.92;11.73;;;15.10;99.90;;;;;;5078474;28;20035;-75
2023/06/24 00:21:02;;;;;;;16.67;11.70;;;15.00;99.90;;;;;;5075204;28;20036;-75
2023/06/24 00:23:30;;;;;;;17.88;12.55;;;15.00;99.90;;;;;;5075648;28;20082;-75
2023/06/24 00:25:56;;;;;;;20.88;13.70;;;15.00;99.90;;;;;;5076337;28;20055;-75
2023/06/24 00:28:22;;;;;;;21.10;13.43;;;15.00;99.90;;;;;;5080343;28;20438;-75
2023/06/24 00:30:48;;;;;;;20.33;13.15;;;14.90;99.90;;;;;;5060608;28;20175;-74
2023/06/24 00:33:15;;;;;;;17.73;13.05;;;15.00;99.90;;;;;;5093277;28;20990;-75
2023/06/24 00:35:41;;;;;;;19.52;12.95;;;15.00;99.90;;;;;;5085557;28;20078;-75
2023/06/24 00:38:07;;;;;;;19.65;13.55;;;15.00;99.90;;;;;;5085512;28;20134;-74
2023/06/24 00:40:33;;;;;;;16.38;13.05;;;15.00;99.90;;;;;;5073351;28;20444;-74
2023/06/24 00:43:01;;;;;;;18.90;12.85;;;15.00;99.90;;;;;;5068711;28;20028;-75
2023/06/24 00:45:27;;;;;;;20.05;13.35;;;15.00;99.90;;;;;;5071811;28;20401;-75
2023/06/24 00:47:55;;;;;;;19.23;12.88;;;15.00;99.90;;;;;;5078294;28;20035;-75
2023/06/24 00:50:20;;;;;;;18.70;12.25;;;15.00;99.90;;;;;;5077072;28;20491;-75
2023/06/24 00:52:47;;;;;;;21.67;13.60;;;15.00;99.90;;;;;;5080011;28;20449;-75
2023/06/24 00:55:15;;;;;;;22.38;14.77;;;14.90;99.90;;;;;;5074523;28;20415;-75
2023/06/24 00:57:44;;;;;;;20.50;13.82;;;14.90;99.90;;;;;;5078068;28;20080;-75
2023/06/24 01:00:17;;;;;;;24.60;14.70;;;14.90;99.90;;;;;;5078399;28;20040;-74
2023/06/24 01:02:43;;;;;;;21.10;14.48;;;14.80;99.90;;;;;;5079741;28;20035;-75
2023/06/24 01:05:10;;;;;;;18.73;13.52;;;14.80;99.90;;;;;;5069968;28;20098;-75
2023/06/24 01:07:37;;;;;;;20.23;13.75;;;14.80;99.90;;;;;;5063453;28;20529;-75
2023/06/24 01:10:07;;;;;;;21.30;14.73;;;14.70;99.90;;;;;;5084851;28;20024;-75
2023/06/24 01:12:39;;;;;;;25.33;15.48;;;14.80;99.90;;;;;;5063020;28;20082;-75
2023/06/24 01:15:06;;;;;;;17.25;12.57;;;14.80;99.90;;;;;;5066988;28;20032;-74
2023/06/24 01:17:48;;;;;;;19.08;13.40;;;14.80;99.90;;;;;;5073455;28;20452;-75
2023/06/24 01:20:14;;;;;;;20.52;13.82;;;14.80;99.90;;;;;;5080216;28;20127;-75
2023/06/24 01:22:54;;;;;;;21.35;14.05;;;14.80;99.90;;;;;;5074859;28;20564;-75
2023/06/24 01:25:55;;;;;;;19.75;13.35;;;14.80;99.90;;;;;;5077996;28;20040;-75
2023/06/24 01:28:30;;;;;;;18.45;12.07;;;14.80;99.90;;;;;;5036666;28;20132;-75
2023/06/24 01:31:23;;;;;;;18.77;12.43;;;14.90;99.90;;;;;;5069418;28;20033;-75
2023/06/24 01:34:01;;;;;;;17.50;12.52;;;14.90;99.90;;;;;;5070152;28;20479;-75
2023/06/24 01:36:28;;;;;;;15.23;10.85;;;14.90;99.90;;;;;;5064630;28;20051;-75
2023/06/24 01:39:03;;;;;;;18.30;12.57;;;14.90;99.90;;;;;;5068584;28;20024;-75
2023/06/24 01:41:34;;;;;;;17.35;11.93;;;14.90;99.90;;;;;;5066042;28;20123;-75
2023/06/24 01:44:01;;;;;;;16.27;11.65;;;14.80;99.90;;;;;;5089465;28;20404;-76
2023/06/24 01:46:29;;;;;;;19.00;11.50;;;14.80;99.90;;;;;;5073128;28;20443;-75
2023/06/24 01:48:59;;;;;;;18.45;12.82;;;14.80;99.90;;;;;;5077097;28;20035;-74
2023/06/24 01:51:26;;;;;;;16.90;11.75;;;14.70;99.90;;;;;;5074872;28;20109;-75
2023/06/24 01:53:57;;;;;;;18.88;12.90;;;14.80;99.90;;;;;;5079685;28;20105;-75
2023/06/24 01:56:25;;;;;;;;;;;14.70;99.90;;;;;;5077112;28;20112;-75
2023/06/24 01:58:53;;;;;;;20.67;12.60;;;14.70;99.90;;;;;;5077203;28;19908;-74
2023/06/24 02:01:20;;;;;;;17.98;12.82;;;14.70;99.90;;;;;;5072991;28;20463;-74
2023/06/24 02:03:48;;;;;;;17.30;12.35;;;14.70;99.90;;;;;;5074359;28;20020;-74
2023/06/24 02:06:15;;;;;;;17.40;12.38;;;14.70;99.90;;;;;;5075256;28;20123;-75
2023/06/24 02:08:42;;;;;;;20.25;13.15;;;14.70;99.90;;;;;;5081246;28;20495;-75
2023/06/24 02:11:10;;;;;;;19.90;13.43;;;14.70;99.90;;;;;;5078223;28;20067;-75
2023/06/24 02:13:39;;;;;;;17.60;12.75;;;14.70;99.90;;;;;;5077214;28;20387;-74
2023/06/24 02:16:08;;;;;;;19.58;13.52;;;14.70;99.90;;;;;;5077408;28;20020;-75
2023/06/24 02:18:42;;;;;;;22.17;13.95;;;14.70;99.90;;;;;;5082762;28;20384;-75
2023/06/24 02:21:09;;;;;;;20.73;13.90;;;14.80;99.90;;;;;;5076486;28;20039;-74
2023/06/24 02:23:36;;;;;;;17.98;13.23;;;14.80;99.90;;;;;;5076291;28;20036;-74
2023/06/24 02:26:03;;;;;;;21.70;13.27;;;14.80;99.90;;;;;;5075373;28;20035;-75
2023/06/24 02:28:29;;;;;;;20.33;13.32;;;14.80;99.90;;;;;;5074875;28;20071;-75
2023/06/24 02:30:58;;;;;;;18.70;12.88;;;14.80;99.90;;;;;;5078239;28;20512;-75
2023/06/24 02:33:23;;;;;;;17.85;12.52;;;14.70;99.90;;;;;;5076485;28;20046;-75
2023/06/24 02:35:49;;;;;;;16.20;12.13;;;14.70;99.90;;;;;;5079332;28;20415;-75
2023/06/24 02:38:15;;;;;;;17.73;13.35;;;14.70;99.90;;;;;;5075948;28;20421;-75
2023/06/24 02:40:44;;;;;;;17.38;12.57;;;14.70;99.90;;;;;;5082180;28;20328;-74
2023/06/24 02:43:10;;;;;;;19.80;11.90;;;14.80;99.90;;;;;;5073241;28;20430;-75
2023/06/24 02:45:36;;;;;;;15.55;10.73;;;14.90;99.90;;;;;;5078363;28;20043;-75
2023/06/24 02:48:03;;;;;;;17.73;10.88;;;14.80;99.90;;;;;;5075216;28;20078;-75
2023/06/24 02:50:29;;;;;;;15.65;11.05;;;14.80;99.90;;;;;;5075699;28;20028;-74
2023/06/24 02:52:57;;;;;;;15.85;11.18;;;14.80;99.90;;;;;;5081192;28;20045;-74
2023/06/24 02:55:22;;;;;;;17.35;11.82;;;14.70;99.90;;;;;;5079982;28;20042;-74
2023/06/24 02:57:50;;;;;;;15.23;11.13;;;14.70;99.90;;;;;;5078998;28;20411;-75
2023/06/24 03:00:16;;;;;;;16.83;11.30;;;14.60;99.90;;;;;;5081426;28;20129;-74
2023/06/24 03:02:43;;;;;;;15.15;9.88;;;14.60;99.90;;;;;;5075783;28;20078;-75
2023/06/24 03:05:10;;;;;;;15.00;10.52;;;14.50;99.90;;;;;;5076556;22;20059;-75
2023/06/24 03:07:38;;;;;;;15.02;9.70;;;14.40;99.90;;;;;;5061039;28;20029;-75
2023/06/24 03:10:05;;;;;;;12.82;9.60;;;14.30;99.90;;;;;;5074781;28;20115;-74
2023/06/24 03:12:31;;;;;;;14.60;10.07;;;14.30;99.90;;;;;;5079778;28;20499;-74
2023/06/24 03:14:57;;;;;;;13.60;9.32;;;14.20;99.90;;;;;;5076542;28;20089;-74
2023/06/24 03:17:23;;;;;;;13.40;9.48;;;14.20;99.90;;;;;;5064656;28;20418;-75
2023/06/24 03:19:48;;;;;;;14.40;10.43;;;14.10;99.90;;;;;;5077712;28;20080;-74
2023/06/24 03:22:14;;;;;;;14.15;9.10;;;14.10;99.90;;;;;;5076063;28;20530;-75
2023/06/24 03:24:40;;;;;;;11.30;7.70;;;14.00;99.90;;;;;;5078740;28;20044;-74
2023/06/24 03:27:05;;;;;;;12.50;9.65;;;14.00;99.90;;;;;;5077238;28;20031;-74
2023/06/24 03:29:31;;;;;;;14.98;10.98;;;14.00;99.90;;;;;;5076598;28;20028;-75
2023/06/24 03:31:57;;;;;;;15.43;9.68;;;14.00;99.90;;;;;;5071662;28;20028;-74
2023/06/24 03:34:22;;;;;;;15.43;10.60;;;14.00;99.90;;;;;;5066826;28;20419;-75
2023/06/24 03:36:48;;;;;;;14.35;10.43;;;14.00;99.90;;;;;;5080579;28;20035;-74
2023/06/24 03:39:13;;;;;;;15.95;10.95;;;14.00;99.90;;;;;;5079532;28;20043;-74
2023/06/24 03:41:39;;;;;;;14.75;9.27;;;14.00;99.90;;;;;;5070820;28;20032;-75
2023/06/24 03:44:05;;;;;;;16.25;9.75;;;13.90;99.90;;;;;;5077198;28;20028;-74
2023/06/24 03:46:32;;;;;;;13.25;9.73;;;13.90;99.90;;;;;;5072559;28;20019;-75
2023/06/24 03:48:58;;;;;;;14.85;10.52;;;13.90;99.90;;;;;;5065236;28;20032;-73
2023/06/24 03:51:24;;;;;;;15.13;9.90;;;13.90;99.90;;;;;;5071148;28;20475;-74
2023/06/24 03:53:51;;;;;;;14.80;10.50;;;13.90;99.90;;;;;;5076042;28;20148;-75
2023/06/24 03:56:17;;;;;;;18.13;12.23;;;13.90;99.90;;;;;;5073163;28;20066;-76
2023/06/24 03:58:42;;;;;;;18.65;11.90;;;14.00;99.90;;;;;;5070319;28;20371;-75
2023/06/24 04:01:09;;;;;;;18.92;10.88;;;14.00;99.90;;;;;;5070732;28;20028;-74
2023/06/24 04:03:35;;;;;;;13.93;9.90;;;14.00;99.90;;;;;;5074462;28;20020;-75
2023/06/24 04:06:04;;;;;;;19.27;11.80;;;14.00;99.90;;;;;;5064420;28;20085;-75
2023/06/24 04:08:30;;;;;;;16.90;10.68;;;14.10;99.90;;;;;;5075679;28;20020;-74
2023/06/24 04:11:03;;;;;;;15.35;10.07;;;14.10;99.90;;;;;;5073770;28;20048;-74
2023/06/24 04:13:29;;;;;;;13.48;8.90;;;14.10;99.90;;;;;;5070113;28;20842;-74
2023/06/24 04:15:55;;;;;;;14.95;9.65;;;14.10;99.90;;;;;;5070982;28;20025;-75
2023/06/24 04:18:20;;;;;;;13.55;8.93;;;14.10;99.90;;;;;;5068301;28;20091;-75
2023/06/24 04:20:46;;;;;;;13.40;9.15;;;14.10;99.90;;;;;;5069622;28;20051;-74
2023/06/24 04:23:14;;;;;;;15.65;11.35;;;14.10;99.90;;;;;;5075024;28;20043;-75
2023/06/24 04:25:40;;;;;;;18.50;11.23;;;14.20;99.90;;;;;;5071485;28;20207;-75
2023/06/24 04:28:06;;;;;;;16.17;9.77;;;14.20;99.90;;;;;;5069926;28;20562;-75
2023/06/24 04:30:32;;;;;;;13.55;8.68;;;14.20;99.90;;;;;;5072011;28;20079;-76
2023/06/24 04:32:58;;;;;;;10.63;8.20;;;14.20;99.90;;;;;;5073256;28;20195;-75
2023/06/24 04:35:24;;;;;;;13.95;8.48;;;14.30;99.90;;;;;;5071055;28;20534;-74
2023/06/24 04:37:50;;;;;;;10.77;8.68;;;14.30;99.90;;;;;;5069884;28;20039;-75
2023/06/24 04:40:19;;;;;;;13.02;9.27;;;14.40;99.90;;;;;;5074089;28;20032;-75
2023/06/24 04:42:46;;;;;;;15.32;8.77;;;14.50;99.90;;;;;;5074206;28;20096;-75
2023/06/24 04:45:11;;;;;;;11.93;8.52;;;14.70;99.90;;;;;;5073714;28;20532;-74
2023/06/24 04:47:37;;;;;;;13.60;8.48;;;14.80;99.90;;;;;;5075358;28;20040;-75
2023/06/24 04:50:03;;;;;;;12.27;9.27;;;15.00;99.90;;;;;;5061300;28;20031;-75
2023/06/24 04:52:29;;;;;;;14.35;9.80;;;15.10;99.90;;;;;;5073840;28;20853;-74
2023/06/24 04:54:54;;;;;;;14.45;9.23;;;15.30;99.90;;;;;;5074364;28;20028;-75
2023/06/24 04:57:26;;;;;;;10.05;7.65;;;15.40;99.90;;;;;;5053891;28;20036;-74
2023/06/24 04:59:51;;;;;;;;;;;15.50;99.90;;;;;;5070455;28;20443;-74
2023/06/24 05:02:17;;;;;;;12.60;9.10;;;15.50;99.90;;;;;;5069805;28;19948;-75
2023/06/24 05:04:43;;;;;;;11.43;8.82;;;15.60;99.90;;;;;;5070758;28;20052;-75
2023/06/24 05:07:08;;;;;;;11.23;8.68;;;15.60;99.90;;;;;;5076638;28;20107;-75
2023/06/24 05:09:37;;;;;;;14.52;9.15;;;15.70;99.90;;;;;;5073677;28;20471;-74
2023/06/24 05:12:04;;;;;;;13.55;9.35;;;15.80;99.90;;;;;;5062092;28;20038;-74
2023/06/24 05:14:29;;;;;;;18.05;12.23;;;16.00;99.90;;;;;;5068330;28;20037;-74
2023/06/24 05:16:55;;;;;;;19.50;13.18;;;16.10;99.90;;;;;;5069967;28;20039;-75
2023/06/24 05:19:20;;;;;;;25.52;15.05;;;16.30;99.90;;;;;;5076190;28;20110;-75
2023/06/24 05:21:46;;;;;;;22.40;14.77;;;16.50;99.90;;;;;;5069999;28;20028;-74
2023/06/24 05:24:11;;;;;;;20.50;14.15;;;16.70;99.90;;;;;;5075508;28;20071;-75
2023/06/24 05:26:37;;;;;;;21.45;14.82;;;16.90;99.90;;;;;;5065307;28;20036;-74
2023/06/24 05:29:03;;;;;;;21.27;14.48;;;17.00;99.90;;;;;;5075626;28;20067;-75
2023/06/24 05:31:28;;;;;;;22.13;14.95;;;17.10;99.90;;;;;;5072428;28;20024;-74
2023/06/24 05:33:54;;;;;;;22.70;15.38;;;17.40;99.90;;;;;;5068814;28;20028;-74
2023/06/24 05:36:20;;;;;;;20.02;13.93;;;17.50;99.90;;;;;;5073944;28;20040;-74
2023/06/24 05:38:45;;;;;;;18.25;13.18;;;17.70;99.90;;;;;;5079937;28;20055;-75
2023/06/24 05:41:11;;;;;;;22.85;13.95;;;17.80;99.90;;;;;;5076796;28;20035;-75
2023/06/24 05:43:37;;;;;;;21.52;13.60;;;18.00;99.90;;;;;;5095320;28;20499;-74
2023/06/24 05:46:03;;;;;;;18.40;13.35;;;18.20;99.90;;;;;;5075869;28;20055;-74
2023/06/24 05:48:28;;;;;;;21.08;14.48;;;18.50;99.90;;;;;;5072994;28;20030;-74
2023/06/24 05:50:54;;;;;;;14.85;12.93;;;18.80;99.90;;;;;;5073677;28;20024;-75
2023/06/24 05:53:19;;;;;;;16.85;11.88;;;18.90;99.90;;;;;;5078235;28;20063;-74
2023/06/24 05:55:45;;;;;;;16.67;12.38;;;19.00;99.90;;;;;;5079865;28;20032;-75
2023/06/24 05:58:11;;;;;;;22.48;13.02;;;18.90;99.90;;;;;;5074365;28;20090;-76
2023/06/24 06:00:36;;;;;;;20.77;13.65;;;18.90;99.90;;;;;;5073671;28;20042;-75
2023/06/24 06:03:02;;;;;;;14.73;11.40;;;19.10;99.90;;;;;;5072858;28;20037;-75
2023/06/24 06:05:28;;;;;;;16.17;12.05;;;19.20;99.90;;;;;;5073249;28;20139;-75
2023/06/24 06:07:53;;;;;;;20.55;14.40;;;19.30;99.90;;;;;;5076043;28;20028;-76
2023/06/24 06:10:19;;;;;;;18.55;13.68;;;19.30;99.90;;;;;;5077233;28;20032;-75
2023/06/24 06:12:45;;;;;;;21.27;13.90;;;19.50;99.90;;;;;;5075517;28;20046;-75
2023/06/24 06:15:11;;;;;;;19.35;12.85;;;19.60;99.90;;;;;;5074800;28;20264;-75
2023/06/24 06:17:37;;;;;;;17.77;13.23;;;19.70;99.90;;;;;;5071590;28;20479;-75
2023/06/24 06:20:03;;;;;;;19.40;13.63;;;19.80;99.90;;;;;;5070571;28;20117;-75
2023/06/24 06:22:29;;;;;;;67.63;42.55;;;19.90;99.90;;;;;;5070188;28;20133;-75
2023/06/24 06:24:55;;;;;;;55.38;35.80;;;20.00;99.90;;;;;;5072523;28;20027;-78
2023/06/24 06:27:20;;;;;;;25.80;17.73;;;20.10;99.90;;;;;;5065767;28;20149;-82
2023/06/24 06:29:46;;;;;;;14.55;12.00;;;20.10;99.90;;;;;;5077583;28;20031;-83
2023/06/24 06:32:11;;;;;;;15.10;11.15;;;20.40;99.90;;;;;;5069078;28;20046;-80
2023/06/24 06:34:37;;;;;;;16.17;10.32;;;20.50;99.90;;;;;;5075473;28;20368;-80
2023/06/24 06:37:03;;;;;;;14.93;10.50;;;20.50;99.90;;;;;;5076074;28;20024;-82
2023/06/24 06:39:28;;;;;;;17.20;10.25;;;20.70;99.90;;;;;;5069119;28;20050;-80
2023/06/24 06:41:54;;;;;;;14.80;10.25;;;20.70;99.90;;;;;;5073722;28;20114;-75
2023/06/24 06:44:21;;;;;;;14.32;10.30;;;20.90;99.90;;;;;;5062482;28;20551;-77
2023/06/24 06:46:46;;;;;;;14.68;9.32;;;20.90;99.90;;;;;;5060482;28;20056;-79
2023/06/24 06:49:12;;;;;;;13.75;8.85;;;20.70;99.90;;;;;;5060281;28;20032;-76
2023/06/24 06:51:38;;;;;;;14.63;9.23;;;20.60;99.90;;;;;;5056434;28;20561;-77
2023/06/24 06:54:03;;;;;;;15.23;9.90;;;20.50;99.90;;;;;;5057598;28;20038;-80
2023/06/24 06:56:29;;;;;;;12.85;9.70;;;20.30;99.90;;;;;;5077769;28;20120;-81
2023/06/24 06:58:55;;;;;;;14.27;10.65;;;20.30;99.90;;;;;;5072298;28;20217;-80
2023/06/24 07:01:20;;;;;;;14.60;10.27;;;20.20;99.90;;;;;;5071542;28;20063;-77
2023/06/24 07:03:46;;;;;;;14.88;9.90;;;20.10;99.90;;;;;;5070253;28;20501;-80
2023/06/24 07:06:12;;;;;;;14.20;9.88;;;20.00;99.90;;;;;;5061344;28;20048;-81
2023/06/24 07:08:37;;;;;;;12.25;9.38;;;19.80;99.90;;;;;;5062675;28;20119;-81
2023/06/24 07:11:03;;;;;;;12.35;8.48;;;19.80;99.90;;;;;;5064409;28;20032;-82
2023/06/24 07:13:29;;;;;;;12.80;8.50;;;19.80;99.90;;;;;;5059928;28;20073;-76
2023/06/24 07:15:54;;;;;;;11.20;8.45;;;19.70;99.90;;;;;;5072431;28;20115;-74
2023/06/24 07:18:20;;;;;;;13.80;8.80;;;19.70;99.90;;;;;;5070156;28;20097;-80
2023/06/24 07:20:46;;;;;;;12.63;7.70;;;19.80;99.90;;;;;;5062126;28;20344;-77
2023/06/24 07:23:13;;;;;;;11.77;7.88;;;19.90;99.90;;;;;;5066664;28;20441;-83
2023/06/24 07:25:38;;;;;;;11.23;8.38;;;20.20;99.90;;;;;;5074699;28;20544;-83
2023/06/24 07:28:04;;;;;;;11.27;7.43;;;20.30;99.90;;;;;;5064007;28;20047;-82
2023/06/24 07:30:30;;;;;;;10.40;8.02;;;20.70;99.90;;;;;;5074473;28;20046;-75
2023/06/24 07:32:55;;;;;;;9.48;5.90;;;22.20;99.90;;;;;;5073341;28;20020;-76
2023/06/24 07:35:21;;;;;;;7.85;5.53;;;25.10;99.90;;;;;;5075338;28;20642;-74
2023/06/24 07:37:46;;;;;;;9.38;4.80;;;28.40;99.90;;;;;;5074578;28;20332;-78
2023/06/24 07:40:12;;;;;;;6.55;4.43;;;31.00;99.90;;;;;;5077239;28;20330;-81
2023/06/24 07:42:38;;;;;;;5.15;3.70;;;33.20;93.10;;;;;;5074744;28;20036;-81
2023/06/24 07:45:04;;;;;;;6.15;3.30;;;34.90;74.40;;;;;;5075543;28;20076;-78
2023/06/24 07:47:31;;;;;;;6.47;3.22;;;36.40;64.50;;;;;;5076035;28;20063;-80
2023/06/24 07:49:57;;;;;;;5.38;2.83;;;37.60;56.60;;;;;;5077058;28;20039;-78
2023/06/24 07:52:24;;;;;;;4.07;3.15;;;38.00;54.50;;;;;;5076702;28;20115;-81
2023/06/24 07:54:49;;;;;;;4.72;2.78;;;38.60;52.50;;;;;;5075675;28;20038;-73
2023/06/24 07:57:15;;;;;;;4.53;3.15;;;39.00;50.80;;;;;;5072941;28;20028;-77
2023/06/24 07:59:41;;;;;;;5.32;2.80;;;39.60;48.60;;;;;;5074880;28;20028;-81
2023/06/24 08:02:07;;;;;;;4.65;2.90;;;40.10;47.50;;;;;;5065881;28;20090;-78
2023/06/24 08:04:32;;;;;;;3.58;2.33;;;40.70;46.50;;;;;;5069101;28;20040;-78
2023/06/24 08:06:58;;;;;;;3.17;2.40;;;41.10;45.60;;;;;;5067550;28;20107;-77
2023/06/24 08:09:23;;;;;;;4.22;2.10;;;41.50;44.30;;;;;;5070315;28;20450;-79
2023/06/24 08:11:49;;;;;;;3.58;2.47;;;42.00;44.70;;;;;;5073140;28;20468;-79
2023/06/24 08:14:14;;;;;;;2.90;2.10;;;42.20;41.80;;;;;;5073523;28;20341;-79
2023/06/24 08:16:40;;;;;;;3.33;2.35;;;42.40;43.90;;;;;;5069252;28;20407;-79
2023/06/24 08:19:06;;;;;;;3.00;2.10;;;42.80;40.40;;;;;;5067719;28;20115;-73
2023/06/24 08:21:32;;;;;;;3.38;2.50;;;42.50;41.30;;;;;;5074816;28;20389;-79
2023/06/24 08:23:57;;;;;;;2.70;2.15;;;42.40;42.00;;;;;;5071102;28;20475;-79
2023/06/24 08:26:24;;;;;;;2.30;2.08;;;42.80;41.40;;;;;;5060550;28;20152;-79
2023/06/24 08:28:50;;;;;;;2.45;1.85;;;43.20;40.40;;;;;;5070881;28;20187;-79
2023/06/24 08:31:15;;;;;;;3.33;2.42;;;43.50;39.00;;;;;;5072783;28;20131;-80
2023/06/24 08:33:45;;;;;;;5.30;2.30;;;43.60;39.40;;;;;;5075397;28;20035;-80
2023/06/24 08:36:11;;;;;;;3.70;1.55;;;43.80;39.50;;;;;;5071519;28;20024;-80
2023/06/24 08:38:36;;;;;;;2.03;1.50;;;44.10;38.10;;;;;;5073639;28;20182;-78
2023/06/24 08:41:02;;;;;;;3.92;1.80;;;44.20;37.70;;;;;;5072695;28;20024;-80
2023/06/24 08:43:28;;;;;;;2.70;1.60;;;44.40;38.00;;;;;;5062919;28;20036;-80
2023/06/24 08:45:54;;;;;;;2.30;1.52;;;44.90;36.20;;;;;;5071004;28;20100;-79
2023/06/24 08:48:20;;;;;;;2.75;1.50;;;44.60;38.50;;;;;;5076605;28;20119;-79
2023/06/24 08:50:51;;;;;;;1.90;1.42;;;44.60;37.60;;;;;;5074453;28;20032;-79
2023/06/24 08:53:19;;;;;;;2.65;1.70;;;45.00;36.30;;;;;;5071781;28;20039;-80
2023/06/24 08:55:45;;;;;;;2.45;1.70;;;45.50;36.60;;;;;;5075697;28;20495;-79
2023/06/24 08:58:12;;;;;;;1.90;1.40;;;45.50;35.00;;;;;;5071781;28;20032;-80
2023/06/24 09:00:38;;;;;;;3.40;1.83;;;45.30;37.50;;;;;;5075699;28;20035;-79
2023/06/24 09:03:03;;;;;;;4.78;2.05;;;45.60;36.20;;;;;;5074735;28;20032;-79
2023/06/24 09:05:29;;;;;;;2.45;1.70;;;45.70;36.10;;;;;;5077855;28;20082;-79
2023/06/24 09:07:55;;;;;;;3.10;1.83;;;46.30;36.20;;;;;;5075497;28;20400;-79
2023/06/24 09:10:33;;;;;;;3.38;1.70;;;46.40;34.90;;;;;;5076799;28;20401;-78
2023/06/24 09:13:04;;;;;;;1.90;1.65;;;46.00;34.60;;;;;;5070944;28;20028;-80
2023/06/24 09:15:31;;;;;;;2.28;1.50;;;45.50;35.20;;;;;;5077040;28;20185;-79
2023/06/24 09:17:57;;;;;;;2.30;1.50;;;45.40;35.60;;;;;;5076519;28;20043;-80
2023/06/24 09:20:22;;;;;;;2.60;1.60;;;44.30;36.00;;;;;;5067811;28;20028;-80
2023/06/24 09:22:49;;;;;;;2.58;1.60;;;44.70;36.80;;;;;;5067837;28;20025;-75
2023/06/24 09:25:18;;;;;;;2.80;1.52;;;45.10;34.20;;;;;;5077060;28;20561;-79
2023/06/24 09:27:52;;;;;;;3.07;1.50;;;45.40;34.30;;;;;;5075721;28;20036;-79
2023/06/24 09:30:24;;;;;;;4.43;1.75;;;45.40;34.10;;;;;;5071715;28;20299;-82
2023/06/24 09:32:51;;;;;;;2.90;1.48;;;46.10;37.10;;;;;;5073551;28;20029;-79
2023/06/24 09:35:26;;;;;;;2.13;1.70;;;46.40;35.70;;;;;;5070590;28;20088;-79
2023/06/24 09:37:52;;;;;;;2.92;1.85;;;47.00;34.10;;;;;;5081987;28;20057;-79
2023/06/24 09:40:18;;;;;;;3.22;1.73;;;46.60;34.70;;;;;;5072327;28;20103;-79
2023/06/24 09:42:58;;;;;;;3.47;1.40;;;47.00;36.40;;;;;;5072956;28;20029;-78
2023/06/24 09:45:28;;;;;;;3.78;1.40;;;47.60;35.10;;;;;;5072762;28;20035;-84
2023/06/24 09:47:54;;;;;;;2.15;1.40;;;47.70;33.80;;;;;;5068676;28;20502;-78
2023/06/24 09:50:21;;;;;;;3.35;1.77;;;47.50;33.80;;;;;;5072598;28;20038;-80
2023/06/24 09:52:48;;;;;;;2.10;1.75;;;47.20;32.90;;;;;;5065128;28;20542;-85
2023/06/24 09:55:15;;;;;;;2.83;1.73;;;45.00;33.90;;;;;;5076079;28;20036;-78
2023/06/24 09:57:51;;;;;;;4.72;2.20;;;45.10;36.00;;;;;;5070957;28;20056;-81
2023/06/24 10:00:19;;;;;;;2.42;1.77;;;45.10;33.80;;;;;;5072671;28;20103;-78
2023/06/24 10:02:45;;;;;;;2.20;1.60;;;45.00;35.10;;;;;;5071039;28;20114;-80
2023/06/24 10:05:15;;;;;;;3.25;2.03;;;45.50;35.30;;;;;;5067843;28;20139;-80
2023/06/24 10:07:42;;;;;;;4.25;1.98;;;46.20;34.60;;;;;;5063530;28;20108;-81
2023/06/24 10:10:11;;;;;;;2.75;1.73;;;46.40;34.70;;;;;;5074010;28;20111;-80
2023/06/24 10:12:38;;;;;;;2.55;1.75;;;46.80;33.50;;;;;;5069473;28;20119;-78
2023/06/24 10:15:05;;;;;;;3.58;1.65;;;47.00;33.10;;;;;;5072943;28;20035;-80
2023/06/24 10:17:31;;;;;;;2.80;1.98;;;47.00;34.70;;;;;;5081765;28;20051;-80
2023/06/24 10:19:56;;;;;;;2.35;1.95;;;47.00;35.10;;;;;;5078775;28;20028;-79
2023/06/24 10:22:24;;;;;;;3.95;2.10;;;46.30;33.10;;;;;;5069235;28;20035;-79
2023/06/24 10:24:51;;;;;;;4.18;2.35;;;45.90;34.80;;;;;;5071719;28;20129;-76
2023/06/24 10:27:22;;;;;;;3.53;1.92;;;46.20;33.60;;;;;;5075395;28;20031;-79
2023/06/24 10:29:50;;;;;;;3.38;2.00;;;46.60;33.50;;;;;;5071597;28;20036;-80
2023/06/24 10:32:15;;;;;;;5.03;2.47;;;46.80;32.80;;;;;;5071426;28;20032;-80
2023/06/24 10:34:43;;;;;;;3.95;2.40;;;47.00;32.50;;;;;;5076071;28;20173;-78
2023/06/24 10:37:19;;;;;;;2.75;2.08;;;46.20;33.90;;;;;;5076739;28;20201;-78
2023/06/24 10:39:54;;;;;;;3.55;1.70;;;45.10;33.70;;;;;;5071831;28;20514;-78
2023/06/24 10:42:28;;;;;;;4.85;2.38;;;44.90;35.60;;;;;;5072730;28;20032;-78
2023/06/24 10:45:16;;;;;;;3.28;2.17;;;45.20;34.70;;;;;;5070135;28;20115;-79
2023/06/24 10:47:49;;;;;;;3.60;2.22;;;45.10;34.60;;;;;;5075975;28;20147;-78
2023/06/24 10:50:17;;;;;;;3.92;1.90;;;45.30;35.10;;;;;;5071486;28;20036;-78
2023/06/24 10:52:48;;;;;;;3.38;1.50;;;45.70;34.00;;;;;;5069527;28;20035;-78
2023/06/24 10:55:18;;;;;;;2.25;1.70;;;46.10;35.30;;;;;;5067218;28;20080;-78
2023/06/24 10:57:44;;;;;;;3.03;2.00;;;46.20;34.10;;;;;;5069173;28;20407;-78
2023/06/24 11:00:12;;;;;;;3.83;2.17;;;45.90;34.90;;;;;;5073891;28;20034;-78
2023/06/24 11:02:38;;;;;;;3.85;1.80;;;45.70;34.10;;;;;;5077872;28;20113;-78
2023/06/24 11:05:05;;;;;;;3.15;1.77;;;45.90;34.60;;;;;;5076443;28;20051;-78
2023/06/24 11:07:34;;;;;;;3.88;2.20;;;46.00;33.40;;;;;;5079243;28;20024;-77
2023/06/24 11:10:05;;;;;;;3.20;2.07;;;45.40;34.00;;;;;;5072568;28;20048;-78
2023/06/24 11:12:32;;;;;;;5.40;1.98;;;45.40;34.10;;;;;;5071631;28;20032;-78
2023/06/24 11:15:00;;;;;;;4.18;2.05;;;45.30;34.70;;;;;;5071164;28;20028;-78
2023/06/24 11:17:26;;;;;;;2.70;1.45;;;45.30;35.10;;;;;;5069085;28;20036;-77
2023/06/24 11:19:53;;;;;;;3.53;1.98;;;44.80;34.30;;;;;;5073429;28;20024;-78
2023/06/24 11:22:19;;;;;;;3.05;1.75;;;44.80;33.50;;;;;;5066820;28;20108;-78
2023/06/24 11:24:45;;;;;;;3.28;1.63;;;44.00;35.10;;;;;;5071234;28;20110;-78
2023/06/24 11:27:10;;;;;;;3.38;1.70;;;43.30;37.20;;;;;;4721234;28;9999737;-78
2023/06/24 11:29:36;;;;;;;3.50;2.00;;;42.20;38.30;;;;;;5072787;28;20051;-77
2023/06/24 11:32:03;;;;;;;4.00;2.72;;;41.30;39.30;;;;;;5070222;28;20917;-78
2023/06/24 11:34:29;;;;;;;3.15;2.50;;;39.40;40.10;;;;;;5075695;28;20478;-78
2023/06/24 11:36:55;;;;;;;3.53;2.40;;;37.50;45.20;;;;;;5078237;28;20491;-78
2023/06/24 11:39:25;;;;;;;3.60;2.55;;;35.90;48.10;;;;;;5085636;28;20031;-78
2023/06/24 11:41:52;;;;;;;3.67;2.80;;;34.00;47.70;;;;;;5075367;28;20024;-78
2023/06/24 11:44:19;;;;;;;3.90;2.40;;;32.90;57.00;;;;;;5074106;28;20245;-78
2023/06/24 11:46:45;;;;;;;2.63;2.03;;;32.70;60.20;;;;;;5075049;28;20032;-77
2023/06/24 11:49:12;;;;;;;5.78;3.40;;;32.70;61.20;;;;;;5076573;28;20031;-83
2023/06/24 11:51:50;;;;;;;4.20;2.53;;;32.40;63.90;;;;;;5076491;28;20016;-78
2023/06/24 11:54:17;;;;;;;6.30;2.38;;;32.10;62.40;;;;;;5068559;28;20053;-78
2023/06/24 11:56:50;;;;;;;3.65;2.42;;;32.00;62.50;;;;;;5071896;28;20225;-78
2023/06/24 11:59:20;;;;;;;5.50;3.05;;;32.10;61.30;;;;;;5072079;28;20042;-78
2023/06/24 12:01:53;;;;;;;4.55;2.55;;;32.00;72.70;;;;;;5059931;28;20024;-78
2023/06/24 12:04:18;;;;;;;4.28;2.75;;;31.60;61.40;;;;;;5068533;28;20045;-77
2023/06/24 12:06:44;;;;;;;5.50;3.10;;;30.80;65.60;;;;;;5059564;28;20072;-78
2023/06/24 12:09:10;;;;;;;4.07;3.33;;;31.00;75.10;;;;;;5066215;28;20064;-77
2023/06/24 12:11:37;;;;;;;3.53;2.85;;;30.70;71.70;;;;;;5066485;28;20036;-77
2023/06/24 12:14:03;;;;;;;5.20;3.08;;;30.50;73.40;;;;;;5065042;28;20343;-77
2023/06/24 12:16:29;;;;;;;4.88;3.05;;;30.90;80.00;;;;;;5065318;28;20028;-77
2023/06/24 12:18:55;;;;;;;4.60;3.00;;;31.20;82.00;;;;;;5069468;28;20115;-78
2023/06/24 12:21:21;;;;;;;5.82;3.42;;;31.30;73.10;;;;;;5059009;28;20541;-77
2023/06/24 12:23:46;;;;;;;3.05;2.75;;;31.40;67.60;;;;;;5063743;28;20432;-77
2023/06/24 12:26:12;;;;;;;4.97;3.53;;;31.00;73.90;;;;;;5070109;28;20036;-77
2023/06/24 12:28:38;;;;;;;4.88;3.35;;;30.90;75.60;;;;;;5069016;28;20028;-77
2023/06/24 12:31:04;;;;;;;4.88;3.70;;;30.50;70.90;;;;;;5070266;28;20372;-77
2023/06/24 12:33:30;;;;;;;5.68;3.95;;;30.50;84.70;;;;;;5074370;28;20032;-77
2023/06/24 12:35:56;;;;;;;4.38;3.60;;;30.50;80.40;;;;;;5074158;28;20040;-77
2023/06/24 12:38:21;;;;;;;4.70;3.53;;;30.90;85.50;;;;;;5073585;28;20035;-78